Jackson Hole Airport
KJAC : now visible

Airfield :











YOU CAN JOIN US ON...

 
LOGIN :

Register | Disclaimer

   EN    FR    IT 

 









Legend :    VFR   Marginal VFR   IFR   Intensive IFR   Very Intensive IFR
Visi :
Ceiling :
>= 8 km
>= 3000ft
5 to 8 km
1000 to 3000 ft
1500m to 5 km
500 to 1000 ft
800 to 1500m
200 to 500 ft
< 800m
< 200 ft
Symbols :   Thunderstorms  Fog  Heavy snow  Heavy precipitations  Wind > 20 kt






- Airport Elevation : 6451 ft
- IATA code : JAC


KJAC - Jackson Hole

CURRENT METAR :
  • 170327Z 23019KT 4SM -SN FEW019 BKN026 OVC040 M03/M06 A2981 RMK AO2 P0000

EXPIRED METARs :
  • 170256Z 22021G32KT 1 1/4SM -SN FEW016 BKN021 OVC030 M02/M06 A2982 RMK AO2 PK WND 22032/0255 VIS 1/2V3 SLP132 P0000 60000 T10221056 51009
  • 170156Z 24017G23KT 9SM -SN FEW024 BKN039 OVC047 M01/M06 A2981 RMK AO2 PK WND 23027/0128 SLP132 P0000 T10111061
  • 170056Z 26010G22KT 8SM -SN FEW016 BKN035 OVC055 M01/M05 A2979 RMK AO2 SLP124 P0000 T10111050

TAF KJAC
Valid from the 17 at 03:00 until the 18 at 00:00 UTC


170327Z 1703/1724 22018G26KT 2SM -SN BKN020 OVC035
TEMPO 1703/1706 1SM -SN
FM170600 22013G20KT P6SM -SHSN BKN035
FM170900 23010KT P6SM VCSH BKN035



MET'MAP, your aeronautical weather chart ! - Copyright ORBIFLY December 2007 - Disclaimer

ORBIFLY MET'MAP TEAM :

Programming & Development : Alexandra Zaïnal
Concept & original design : Baudouin d'Aumeries
Assistance for programming : Marc-Olivier Méhu
Technical & hardware support : Manuel Goepfert

Contact : metmap@orbifly.com




SOURCES & CREDITS :

   NOAA       Earth
Advisory